sensor_id;sensor_type;location;lat;lon;timestamp;P1;durP1;ratioP1;P2;durP2;ratioP2
21497;SDS011;10910;50.932;0.246;2022-08-19T00:01:39;0.40;;;0.40;;
21497;SDS011;10910;50.932;0.246;2022-08-19T00:04:07;0.38;;;0.38;;
21497;SDS011;10910;50.932;0.246;2022-08-19T00:06:34;0.30;;;0.30;;
21497;SDS011;10910;50.932;0.246;2022-08-19T00:09:01;0.30;;;0.30;;
21497;SDS011;10910;50.932;0.246;2022-08-19T00:11:27;0.40;;;0.40;;
21497;SDS011;10910;50.932;0.246;2022-08-19T00:13:53;0.40;;;0.40;;
21497;SDS011;10910;50.932;0.246;2022-08-19T00:16:21;0.40;;;0.40;;
21497;SDS011;10910;50.932;0.246;2022-08-19T00:18:47;0.30;;;0.30;;
21497;SDS011;10910;50.932;0.246;2022-08-19T00:21:14;0.40;;;0.40;;
21497;SDS011;10910;50.932;0.246;2022-08-19T00:23:40;0.40;;;0.40;;
21497;SDS011;10910;50.932;0.246;2022-08-19T00:26:08;0.50;;;0.50;;
21497;SDS011;10910;50.932;0.246;2022-08-19T00:28:34;0.40;;;0.40;;
21497;SDS011;10910;50.932;0.246;2022-08-19T00:31:01;0.30;;;0.30;;
21497;SDS011;10910;50.932;0.246;2022-08-19T00:33:28;0.40;;;0.40;;
21497;SDS011;10910;50.932;0.246;2022-08-19T00:35:57;0.30;;;0.30;;
21497;SDS011;10910;50.932;0.246;2022-08-19T00:38:24;0.40;;;0.40;;
21497;SDS011;10910;50.932;0.246;2022-08-19T00:40:50;0.35;;;0.35;;
21497;SDS011;10910;50.932;0.246;2022-08-19T00:43:18;0.35;;;0.35;;
21497;SDS011;10910;50.932;0.246;2022-08-19T00:45:45;0.40;;;0.40;;
21497;SDS011;10910;50.932;0.246;2022-08-19T00:48:12;0.47;;;0.47;;
21497;SDS011;10910;50.932;0.246;2022-08-19T00:50:39;0.40;;;0.40;;
21497;SDS011;10910;50.932;0.246;2022-08-19T00:53:08;0.40;;;0.40;;
21497;SDS011;10910;50.932;0.246;2022-08-19T00:55:34;0.50;;;0.50;;
21497;SDS011;10910;50.932;0.246;2022-08-19T00:58:02;0.40;;;0.40;;
21497;SDS011;10910;50.932;0.246;2022-08-19T01:00:30;0.30;;;0.30;;
21497;SDS011;10910;50.932;0.246;2022-08-19T01:02:56;0.40;;;0.40;;
21497;SDS011;10910;50.932;0.246;2022-08-19T01:05:26;0.40;;;0.40;;
21497;SDS011;10910;50.932;0.246;2022-08-19T01:07:54;0.50;;;0.50;;
21497;SDS011;10910;50.932;0.246;2022-08-19T01:10:21;0.40;;;0.40;;
21497;SDS011;10910;50.932;0.246;2022-08-19T01:12:49;0.40;;;0.40;;
21497;SDS011;10910;50.932;0.246;2022-08-19T01:15:17;0.40;;;0.40;;
21497;SDS011;10910;50.932;0.246;2022-08-19T01:17:44;0.40;;;0.40;;
21497;SDS011;10910;50.932;0.246;2022-08-19T01:20:12;0.40;;;0.40;;
21497;SDS011;10910;50.932;0.246;2022-08-19T01:22:46;0.40;;;0.40;;
21497;SDS011;10910;50.932;0.246;2022-08-19T01:25:14;0.40;;;0.40;;
21497;SDS011;10910;50.932;0.246;2022-08-19T01:27:41;0.50;;;0.50;;
21497;SDS011;10910;50.932;0.246;2022-08-19T01:30:09;0.40;;;0.40;;
21497;SDS011;10910;50.932;0.246;2022-08-19T01:32:40;0.50;;;0.50;;
21497;SDS011;10910;50.932;0.246;2022-08-19T01:35:08;0.30;;;0.30;;
21497;SDS011;10910;50.932;0.246;2022-08-19T01:37:42;0.40;;;0.40;;
21497;SDS011;10910;50.932;0.246;2022-08-19T01:40:09;0.40;;;0.40;;
21497;SDS011;10910;50.932;0.246;2022-08-19T01:42:35;0.40;;;0.40;;
21497;SDS011;10910;50.932;0.246;2022-08-19T01:45:02;0.40;;;0.40;;
21497;SDS011;10910;50.932;0.246;2022-08-19T01:47:28;0.40;;;0.40;;
21497;SDS011;10910;50.932;0.246;2022-08-19T01:49:54;0.40;;;0.40;;
21497;SDS011;10910;50.932;0.246;2022-08-19T01:52:20;0.40;;;0.40;;
21497;SDS011;10910;50.932;0.246;2022-08-19T01:54:46;0.40;;;0.40;;
21497;SDS011;10910;50.932;0.246;2022-08-19T01:57:12;0.40;;;0.40;;
21497;SDS011;10910;50.932;0.246;2022-08-19T01:59:40;0.40;;;0.40;;
21497;SDS011;10910;50.932;0.246;2022-08-19T02:02:07;0.40;;;0.40;;
21497;SDS011;10910;50.932;0.246;2022-08-19T02:04:33;0.40;;;0.40;;
21497;SDS011;10910;50.932;0.246;2022-08-19T02:07:00;0.50;;;0.50;;
21497;SDS011;10910;50.932;0.246;2022-08-19T02:09:26;0.40;;;0.40;;
21497;SDS011;10910;50.932;0.246;2022-08-19T02:11:52;0.50;;;0.50;;
21497;SDS011;10910;50.932;0.246;2022-08-19T02:14:18;0.40;;;0.40;;
21497;SDS011;10910;50.932;0.246;2022-08-19T02:16:44;0.45;;;0.45;;
21497;SDS011;10910;50.932;0.246;2022-08-19T02:19:10;0.40;;;0.40;;
21497;SDS011;10910;50.932;0.246;2022-08-19T02:21:36;0.40;;;0.40;;
21497;SDS011;10910;50.932;0.246;2022-08-19T02:24:03;0.50;;;0.50;;
21497;SDS011;10910;50.932;0.246;2022-08-19T02:26:29;0.30;;;0.30;;
21497;SDS011;10910;50.932;0.246;2022-08-19T02:28:55;0.40;;;0.40;;
21497;SDS011;10910;50.932;0.246;2022-08-19T02:31:22;0.45;;;0.45;;
21497;SDS011;10910;50.932;0.246;2022-08-19T02:33:48;0.45;;;0.45;;
21497;SDS011;10910;50.932;0.246;2022-08-19T02:36:15;0.40;;;0.40;;
21497;SDS011;10910;50.932;0.246;2022-08-19T02:38:43;0.40;;;0.40;;
21497;SDS011;10910;50.932;0.246;2022-08-19T02:41:19;0.40;;;0.40;;
21497;SDS011;10910;50.932;0.246;2022-08-19T02:43:46;0.40;;;0.40;;
21497;SDS011;10910;50.932;0.246;2022-08-19T02:46:14;0.40;;;0.40;;
21497;SDS011;10910;50.932;0.246;2022-08-19T02:48:40;0.40;;;0.40;;
21497;SDS011;10910;50.932;0.246;2022-08-19T02:51:06;0.40;;;0.40;;
21497;SDS011;10910;50.932;0.246;2022-08-19T02:53:32;0.40;;;0.40;;
21497;SDS011;10910;50.932;0.246;2022-08-19T02:55:59;0.40;;;0.40;;
21497;SDS011;10910;50.932;0.246;2022-08-19T02:58:25;0.40;;;0.40;;
21497;SDS011;10910;50.932;0.246;2022-08-19T03:00:52;0.50;;;0.50;;
21497;SDS011;10910;50.932;0.246;2022-08-19T03:03:19;0.50;;;0.50;;
21497;SDS011;10910;50.932;0.246;2022-08-19T03:05:45;0.40;;;0.40;;
21497;SDS011;10910;50.932;0.246;2022-08-19T03:08:12;0.45;;;0.45;;
21497;SDS011;10910;50.932;0.246;2022-08-19T03:10:42;0.50;;;0.50;;
21497;SDS011;10910;50.932;0.246;2022-08-19T03:13:10;0.40;;;0.40;;
21497;SDS011;10910;50.932;0.246;2022-08-19T03:15:38;0.47;;;0.47;;
21497;SDS011;10910;50.932;0.246;2022-08-19T03:18:05;0.40;;;0.40;;
21497;SDS011;10910;50.932;0.246;2022-08-19T03:20:31;0.40;;;0.40;;
21497;SDS011;10910;50.932;0.246;2022-08-19T03:22:57;0.45;;;0.45;;
21497;SDS011;10910;50.932;0.246;2022-08-19T03:25:23;0.30;;;0.30;;
21497;SDS011;10910;50.932;0.246;2022-08-19T03:27:50;0.50;;;0.50;;
21497;SDS011;10910;50.932;0.246;2022-08-19T03:30:16;0.40;;;0.40;;
21497;SDS011;10910;50.932;0.246;2022-08-19T03:32:42;0.50;;;0.50;;
21497;SDS011;10910;50.932;0.246;2022-08-19T03:35:08;0.50;;;0.50;;
21497;SDS011;10910;50.932;0.246;2022-08-19T03:37:34;0.40;;;0.40;;
21497;SDS011;10910;50.932;0.246;2022-08-19T03:40:00;0.40;;;0.40;;
21497;SDS011;10910;50.932;0.246;2022-08-19T03:42:28;0.40;;;0.40;;
21497;SDS011;10910;50.932;0.246;2022-08-19T03:44:55;0.40;;;0.40;;
21497;SDS011;10910;50.932;0.246;2022-08-19T03:47:21;0.38;;;0.38;;
21497;SDS011;10910;50.932;0.246;2022-08-19T03:49:47;0.30;;;0.30;;
21497;SDS011;10910;50.932;0.246;2022-08-19T03:52:13;0.50;;;0.50;;
21497;SDS011;10910;50.932;0.246;2022-08-19T03:54:39;0.40;;;0.40;;
21497;SDS011;10910;50.932;0.246;2022-08-19T03:57:05;0.45;;;0.45;;
21497;SDS011;10910;50.932;0.246;2022-08-19T03:59:32;0.40;;;0.40;;
21497;SDS011;10910;50.932;0.246;2022-08-19T04:01:59;0.50;;;0.50;;
21497;SDS011;10910;50.932;0.246;2022-08-19T04:04:26;0.40;;;0.40;;
21497;SDS011;10910;50.932;0.246;2022-08-19T04:06:52;0.40;;;0.40;;
21497;SDS011;10910;50.932;0.246;2022-08-19T04:09:19;0.47;;;0.47;;
21497;SDS011;10910;50.932;0.246;2022-08-19T04:11:47;0.40;;;0.40;;
21497;SDS011;10910;50.932;0.246;2022-08-19T04:14:15;0.40;;;0.40;;
21497;SDS011;10910;50.932;0.246;2022-08-19T04:16:41;0.40;;;0.40;;
21497;SDS011;10910;50.932;0.246;2022-08-19T04:19:09;0.40;;;0.40;;
21497;SDS011;10910;50.932;0.246;2022-08-19T04:21:35;0.40;;;0.40;;
21497;SDS011;10910;50.932;0.246;2022-08-19T04:24:02;0.40;;;0.40;;
21497;SDS011;10910;50.932;0.246;2022-08-19T04:26:30;0.57;;;0.57;;
21497;SDS011;10910;50.932;0.246;2022-08-19T04:29:00;0.50;;;0.50;;
21497;SDS011;10910;50.932;0.246;2022-08-19T04:31:27;0.50;;;0.50;;
21497;SDS011;10910;50.932;0.246;2022-08-19T04:33:57;0.43;;;0.43;;
21497;SDS011;10910;50.932;0.246;2022-08-19T04:36:28;0.50;;;0.50;;
21497;SDS011;10910;50.932;0.246;2022-08-19T04:38:55;0.40;;;0.40;;
21497;SDS011;10910;50.932;0.246;2022-08-19T04:41:22;0.40;;;0.40;;
21497;SDS011;10910;50.932;0.246;2022-08-19T04:44:07;0.50;;;0.50;;
21497;SDS011;10910;50.932;0.246;2022-08-19T04:46:33;0.40;;;0.40;;
21497;SDS011;10910;50.932;0.246;2022-08-19T04:49:00;0.40;;;0.40;;
21497;SDS011;10910;50.932;0.246;2022-08-19T04:51:26;0.50;;;0.50;;
21497;SDS011;10910;50.932;0.246;2022-08-19T04:53:53;0.50;;;0.50;;
21497;SDS011;10910;50.932;0.246;2022-08-19T04:56:19;0.50;;;0.50;;
21497;SDS011;10910;50.932;0.246;2022-08-19T04:58:47;0.40;;;0.40;;
21497;SDS011;10910;50.932;0.246;2022-08-19T05:01:20;0.40;;;0.40;;
21497;SDS011;10910;50.932;0.246;2022-08-19T05:03:46;0.40;;;0.40;;
21497;SDS011;10910;50.932;0.246;2022-08-19T05:06:13;0.50;;;0.50;;
21497;SDS011;10910;50.932;0.246;2022-08-19T05:08:39;0.50;;;0.50;;
21497;SDS011;10910;50.932;0.246;2022-08-19T05:14:04;0.40;;;0.40;;
21497;SDS011;10910;50.932;0.246;2022-08-19T05:16:30;0.50;;;0.50;;
21497;SDS011;10910;50.932;0.246;2022-08-19T05:18:56;0.50;;;0.50;;
21497;SDS011;10910;50.932;0.246;2022-08-19T05:21:42;0.45;;;0.45;;
21497;SDS011;10910;50.932;0.246;2022-08-19T05:24:27;0.40;;;0.40;;
21497;SDS011;10910;50.932;0.246;2022-08-19T05:26:53;0.40;;;0.40;;
21497;SDS011;10910;50.932;0.246;2022-08-19T05:29:22;0.40;;;0.40;;
21497;SDS011;10910;50.932;0.246;2022-08-19T05:31:49;0.40;;;0.40;;
21497;SDS011;10910;50.932;0.246;2022-08-19T05:34:16;0.40;;;0.40;;
21497;SDS011;10910;50.932;0.246;2022-08-19T05:36:43;0.40;;;0.40;;
21497;SDS011;10910;50.932;0.246;2022-08-19T05:39:14;0.38;;;0.38;;
21497;SDS011;10910;50.932;0.246;2022-08-19T05:41:42;0.40;;;0.40;;
21497;SDS011;10910;50.932;0.246;2022-08-19T05:44:08;0.40;;;0.40;;
21497;SDS011;10910;50.932;0.246;2022-08-19T05:46:38;0.50;;;0.50;;
21497;SDS011;10910;50.932;0.246;2022-08-19T05:49:07;0.50;;;0.50;;
21497;SDS011;10910;50.932;0.246;2022-08-19T05:51:34;0.30;;;0.30;;
21497;SDS011;10910;50.932;0.246;2022-08-19T05:54:04;0.40;;;0.40;;
21497;SDS011;10910;50.932;0.246;2022-08-19T05:56:32;0.40;;;0.40;;
21497;SDS011;10910;50.932;0.246;2022-08-19T05:59:01;0.50;;;0.50;;
21497;SDS011;10910;50.932;0.246;2022-08-19T06:01:29;0.50;;;0.50;;
21497;SDS011;10910;50.932;0.246;2022-08-19T06:03:55;0.43;;;0.43;;
21497;SDS011;10910;50.932;0.246;2022-08-19T06:06:21;0.30;;;0.30;;
21497;SDS011;10910;50.932;0.246;2022-08-19T06:08:47;0.30;;;0.30;;
21497;SDS011;10910;50.932;0.246;2022-08-19T06:11:23;0.38;;;0.38;;
21497;SDS011;10910;50.932;0.246;2022-08-19T06:13:50;0.32;;;0.32;;
21497;SDS011;10910;50.932;0.246;2022-08-19T06:16:18;0.40;;;0.40;;
21497;SDS011;10910;50.932;0.246;2022-08-19T06:18:46;0.47;;;0.47;;
21497;SDS011;10910;50.932;0.246;2022-08-19T06:21:12;0.20;;;0.20;;
21497;SDS011;10910;50.932;0.246;2022-08-19T06:23:38;0.40;;;0.40;;
21497;SDS011;10910;50.932;0.246;2022-08-19T06:26:05;0.40;;;0.40;;
21497;SDS011;10910;50.932;0.246;2022-08-19T06:28:32;0.40;;;0.40;;
21497;SDS011;10910;50.932;0.246;2022-08-19T06:30:59;0.40;;;0.40;;
21497;SDS011;10910;50.932;0.246;2022-08-19T06:33:26;0.50;;;0.50;;
21497;SDS011;10910;50.932;0.246;2022-08-19T06:35:52;0.40;;;0.40;;
21497;SDS011;10910;50.932;0.246;2022-08-19T06:38:18;0.40;;;0.40;;
21497;SDS011;10910;50.932;0.246;2022-08-19T06:40:47;0.30;;;0.30;;
21497;SDS011;10910;50.932;0.246;2022-08-19T06:43:13;0.50;;;0.50;;
21497;SDS011;10910;50.932;0.246;2022-08-19T06:45:40;0.40;;;0.40;;
21497;SDS011;10910;50.932;0.246;2022-08-19T06:48:07;0.40;;;0.40;;
21497;SDS011;10910;50.932;0.246;2022-08-19T06:50:33;0.30;;;0.30;;
21497;SDS011;10910;50.932;0.246;2022-08-19T06:52:59;0.30;;;0.30;;
21497;SDS011;10910;50.932;0.246;2022-08-19T06:55:25;0.30;;;0.30;;
21497;SDS011;10910;50.932;0.246;2022-08-19T06:57:53;0.40;;;0.40;;
21497;SDS011;10910;50.932;0.246;2022-08-19T07:00:19;0.40;;;0.40;;
21497;SDS011;10910;50.932;0.246;2022-08-19T07:02:45;0.40;;;0.40;;
21497;SDS011;10910;50.932;0.246;2022-08-19T07:05:11;0.40;;;0.40;;
21497;SDS011;10910;50.932;0.246;2022-08-19T07:07:37;0.40;;;0.40;;
21497;SDS011;10910;50.932;0.246;2022-08-19T07:10:04;0.35;;;0.35;;
21497;SDS011;10910;50.932;0.246;2022-08-19T07:12:31;0.40;;;0.40;;
21497;SDS011;10910;50.932;0.246;2022-08-19T07:15:00;0.20;;;0.20;;
21497;SDS011;10910;50.932;0.246;2022-08-19T07:17:26;0.40;;;0.40;;
21497;SDS011;10910;50.932;0.246;2022-08-19T07:19:52;0.50;;;0.50;;
21497;SDS011;10910;50.932;0.246;2022-08-19T07:22:18;0.40;;;0.40;;
21497;SDS011;10910;50.932;0.246;2022-08-19T07:24:45;0.30;;;0.30;;
21497;SDS011;10910;50.932;0.246;2022-08-19T07:27:13;0.30;;;0.30;;
21497;SDS011;10910;50.932;0.246;2022-08-19T07:29:39;0.30;;;0.30;;
21497;SDS011;10910;50.932;0.246;2022-08-19T07:32:05;0.40;;;0.40;;
21497;SDS011;10910;50.932;0.246;2022-08-19T07:34:32;0.20;;;0.20;;
21497;SDS011;10910;50.932;0.246;2022-08-19T07:37:02;0.40;;;0.40;;
21497;SDS011;10910;50.932;0.246;2022-08-19T07:39:30;0.40;;;0.40;;
21497;SDS011;10910;50.932;0.246;2022-08-19T07:41:57;0.30;;;0.30;;
21497;SDS011;10910;50.932;0.246;2022-08-19T07:44:23;0.30;;;0.30;;
21497;SDS011;10910;50.932;0.246;2022-08-19T07:46:51;0.30;;;0.30;;
21497;SDS011;10910;50.932;0.246;2022-08-19T07:49:17;0.40;;;0.40;;
21497;SDS011;10910;50.932;0.246;2022-08-19T07:51:48;0.30;;;0.30;;
21497;SDS011;10910;50.932;0.246;2022-08-19T07:54:15;0.40;;;0.40;;
21497;SDS011;10910;50.932;0.246;2022-08-19T07:56:41;0.20;;;0.20;;
21497;SDS011;10910;50.932;0.246;2022-08-19T07:59:07;0.40;;;0.40;;
21497;SDS011;10910;50.932;0.246;2022-08-19T08:01:34;0.30;;;0.30;;
21497;SDS011;10910;50.932;0.246;2022-08-19T08:04:00;0.30;;;0.30;;
21497;SDS011;10910;50.932;0.246;2022-08-19T08:06:45;0.30;;;0.30;;
21497;SDS011;10910;50.932;0.246;2022-08-19T08:09:31;0.30;;;0.30;;
21497;SDS011;10910;50.932;0.246;2022-08-19T08:14:36;0.38;;;0.38;;
21497;SDS011;10910;50.932;0.246;2022-08-19T08:17:02;0.30;;;0.30;;
21497;SDS011;10910;50.932;0.246;2022-08-19T08:19:29;0.30;;;0.30;;
21497;SDS011;10910;50.932;0.246;2022-08-19T08:21:56;0.30;;;0.30;;
21497;SDS011;10910;50.932;0.246;2022-08-19T08:24:22;0.20;;;0.20;;
21497;SDS011;10910;50.932;0.246;2022-08-19T08:26:49;0.20;;;0.20;;
21497;SDS011;10910;50.932;0.246;2022-08-19T08:29:15;0.30;;;0.30;;
21497;SDS011;10910;50.932;0.246;2022-08-19T08:31:43;0.20;;;0.20;;
21497;SDS011;10910;50.932;0.246;2022-08-19T08:34:09;0.30;;;0.30;;
21497;SDS011;10910;50.932;0.246;2022-08-19T08:36:37;0.40;;;0.40;;
21497;SDS011;10910;50.932;0.246;2022-08-19T08:39:06;0.30;;;0.30;;
21497;SDS011;10910;50.932;0.246;2022-08-19T08:44:17;0.20;;;0.20;;
21497;SDS011;10910;50.932;0.246;2022-08-19T08:46:46;0.30;;;0.30;;
21497;SDS011;10910;50.932;0.246;2022-08-19T08:49:40;0.30;;;0.30;;
21497;SDS011;10910;50.932;0.246;2022-08-19T08:54:47;0.30;;;0.30;;
21497;SDS011;10910;50.932;0.246;2022-08-19T09:00:18;0.20;;;0.20;;
21497;SDS011;10910;50.932;0.246;2022-08-19T09:02:46;0.20;;;0.20;;
21497;SDS011;10910;50.932;0.246;2022-08-19T09:05:12;0.20;;;0.20;;
21497;SDS011;10910;50.932;0.246;2022-08-19T09:15:35;0.30;;;0.30;;
21497;SDS011;10910;50.932;0.246;2022-08-19T09:18:03;0.30;;;0.30;;
21497;SDS011;10910;50.932;0.246;2022-08-19T09:20:29;0.30;;;0.30;;
21497;SDS011;10910;50.932;0.246;2022-08-19T09:22:56;0.22;;;0.22;;
21497;SDS011;10910;50.932;0.246;2022-08-19T09:25:23;0.20;;;0.20;;
21497;SDS011;10910;50.932;0.246;2022-08-19T09:27:50;0.20;;;0.20;;
21497;SDS011;10910;50.932;0.246;2022-08-19T09:30:26;0.20;;;0.20;;
21497;SDS011;10910;50.932;0.246;2022-08-19T09:32:54;0.20;;;0.20;;
21497;SDS011;10910;50.932;0.246;2022-08-19T09:35:22;0.22;;;0.22;;
21497;SDS011;10910;50.932;0.246;2022-08-19T09:37:49;0.20;;;0.20;;
21497;SDS011;10910;50.932;0.246;2022-08-19T09:40:15;0.30;;;0.30;;
21497;SDS011;10910;50.932;0.246;2022-08-19T09:42:42;0.30;;;0.30;;
21497;SDS011;10910;50.932;0.246;2022-08-19T09:45:09;0.30;;;0.30;;
21497;SDS011;10910;50.932;0.246;2022-08-19T09:47:36;0.30;;;0.30;;
21497;SDS011;10910;50.932;0.246;2022-08-19T09:50:06;0.30;;;0.30;;
21497;SDS011;10910;50.932;0.246;2022-08-19T09:52:33;0.30;;;0.30;;
21497;SDS011;10910;50.932;0.246;2022-08-19T09:55:05;0.30;;;0.30;;
21497;SDS011;10910;50.932;0.246;2022-08-19T09:57:31;0.32;;;0.32;;
21497;SDS011;10910;50.932;0.246;2022-08-19T09:59:58;0.30;;;0.30;;
21497;SDS011;10910;50.932;0.246;2022-08-19T10:02:24;0.30;;;0.30;;
21497;SDS011;10910;50.932;0.246;2022-08-19T10:04:50;0.30;;;0.30;;
21497;SDS011;10910;50.932;0.246;2022-08-19T10:07:35;0.30;;;0.30;;
21497;SDS011;10910;50.932;0.246;2022-08-19T10:10:05;0.40;;;0.40;;
21497;SDS011;10910;50.932;0.246;2022-08-19T10:12:32;0.30;;;0.30;;
21497;SDS011;10910;50.932;0.246;2022-08-19T10:14:58;0.30;;;0.30;;
21497;SDS011;10910;50.932;0.246;2022-08-19T10:17:25;0.40;;;0.40;;
21497;SDS011;10910;50.932;0.246;2022-08-19T10:19:51;0.40;;;0.40;;
21497;SDS011;10910;50.932;0.246;2022-08-19T10:22:17;0.40;;;0.40;;
21497;SDS011;10910;50.932;0.246;2022-08-19T10:24:45;0.30;;;0.30;;
21497;SDS011;10910;50.932;0.246;2022-08-19T10:27:11;0.30;;;0.30;;
21497;SDS011;10910;50.932;0.246;2022-08-19T10:29:39;0.30;;;0.30;;
21497;SDS011;10910;50.932;0.246;2022-08-19T10:32:06;0.30;;;0.30;;
21497;SDS011;10910;50.932;0.246;2022-08-19T10:34:33;0.38;;;0.38;;
21497;SDS011;10910;50.932;0.246;2022-08-19T10:37:00;0.30;;;0.30;;
21497;SDS011;10910;50.932;0.246;2022-08-19T10:39:26;0.20;;;0.20;;
21497;SDS011;10910;50.932;0.246;2022-08-19T10:41:54;0.40;;;0.40;;
21497;SDS011;10910;50.932;0.246;2022-08-19T10:44:21;0.30;;;0.30;;
21497;SDS011;10910;50.932;0.246;2022-08-19T10:46:49;0.43;;;0.43;;
21497;SDS011;10910;50.932;0.246;2022-08-19T10:49:15;0.20;;;0.20;;
21497;SDS011;10910;50.932;0.246;2022-08-19T10:51:41;0.30;;;0.30;;
21497;SDS011;10910;50.932;0.246;2022-08-19T10:54:26;0.30;;;0.30;;
21497;SDS011;10910;50.932;0.246;2022-08-19T10:57:12;0.20;;;0.20;;
21497;SDS011;10910;50.932;0.246;2022-08-19T10:59:38;0.20;;;0.20;;
21497;SDS011;10910;50.932;0.246;2022-08-19T11:02:05;0.20;;;0.20;;
21497;SDS011;10910;50.932;0.246;2022-08-19T11:04:32;0.20;;;0.20;;
21497;SDS011;10910;50.932;0.246;2022-08-19T11:06:58;0.20;;;0.20;;
21497;SDS011;10910;50.932;0.246;2022-08-19T11:09:25;0.20;;;0.20;;
21497;SDS011;10910;50.932;0.246;2022-08-19T11:11:55;0.20;;;0.20;;
21497;SDS011;10910;50.932;0.246;2022-08-19T11:14:22;0.20;;;0.20;;
21497;SDS011;10910;50.932;0.246;2022-08-19T11:16:49;0.20;;;0.20;;
21497;SDS011;10910;50.932;0.246;2022-08-19T11:19:16;0.20;;;0.20;;
21497;SDS011;10910;50.932;0.246;2022-08-19T11:21:45;0.30;;;0.30;;
21497;SDS011;10910;50.932;0.246;2022-08-19T11:24:15;0.20;;;0.20;;
21497;SDS011;10910;50.932;0.246;2022-08-19T11:26:43;0.30;;;0.30;;
21497;SDS011;10910;50.932;0.246;2022-08-19T11:29:09;0.20;;;0.20;;
21497;SDS011;10910;50.932;0.246;2022-08-19T11:31:36;0.30;;;0.30;;
21497;SDS011;10910;50.932;0.246;2022-08-19T11:34:04;0.30;;;0.30;;
21497;SDS011;10910;50.932;0.246;2022-08-19T11:36:31;0.30;;;0.30;;
21497;SDS011;10910;50.932;0.246;2022-08-19T11:38:57;0.30;;;0.30;;
21497;SDS011;10910;50.932;0.246;2022-08-19T11:41:24;0.30;;;0.30;;
21497;SDS011;10910;50.932;0.246;2022-08-19T11:43:51;0.20;;;0.20;;
21497;SDS011;10910;50.932;0.246;2022-08-19T11:46:20;0.30;;;0.30;;
21497;SDS011;10910;50.932;0.246;2022-08-19T11:48:47;0.30;;;0.30;;
21497;SDS011;10910;50.932;0.246;2022-08-19T11:51:19;0.20;;;0.20;;
21497;SDS011;10910;50.932;0.246;2022-08-19T11:53:46;0.30;;;0.30;;
21497;SDS011;10910;50.932;0.246;2022-08-19T11:56:12;0.30;;;0.30;;
21497;SDS011;10910;50.932;0.246;2022-08-19T11:58:39;0.30;;;0.30;;
21497;SDS011;10910;50.932;0.246;2022-08-19T12:01:11;0.30;;;0.30;;
21497;SDS011;10910;50.932;0.246;2022-08-19T12:03:37;0.30;;;0.30;;
21497;SDS011;10910;50.932;0.246;2022-08-19T12:06:05;0.35;;;0.35;;
21497;SDS011;10910;50.932;0.246;2022-08-19T12:08:31;0.30;;;0.30;;
21497;SDS011;10910;50.932;0.246;2022-08-19T12:10:57;0.40;;;0.40;;
21497;SDS011;10910;50.932;0.246;2022-08-19T12:13:25;0.40;;;0.40;;
21497;SDS011;10910;50.932;0.246;2022-08-19T12:15:52;0.40;;;0.40;;
21497;SDS011;10910;50.932;0.246;2022-08-19T12:18:19;0.30;;;0.30;;
21497;SDS011;10910;50.932;0.246;2022-08-19T12:20:45;0.30;;;0.30;;
21497;SDS011;10910;50.932;0.246;2022-08-19T12:23:12;0.30;;;0.30;;
21497;SDS011;10910;50.932;0.246;2022-08-19T12:25:48;0.40;;;0.40;;
21497;SDS011;10910;50.932;0.246;2022-08-19T12:28:17;0.30;;;0.30;;
21497;SDS011;10910;50.932;0.246;2022-08-19T12:30:43;0.40;;;0.40;;
21497;SDS011;10910;50.932;0.246;2022-08-19T12:33:09;0.40;;;0.40;;
21497;SDS011;10910;50.932;0.246;2022-08-19T12:35:35;0.50;;;0.50;;
21497;SDS011;10910;50.932;0.246;2022-08-19T12:38:04;0.30;;;0.30;;
21497;SDS011;10910;50.932;0.246;2022-08-19T12:40:31;0.40;;;0.40;;
21497;SDS011;10910;50.932;0.246;2022-08-19T12:42:57;0.45;;;0.45;;
21497;SDS011;10910;50.932;0.246;2022-08-19T12:45:24;0.43;;;0.43;;
21497;SDS011;10910;50.932;0.246;2022-08-19T12:47:50;0.40;;;0.40;;
21497;SDS011;10910;50.932;0.246;2022-08-19T12:50:17;0.40;;;0.40;;
21497;SDS011;10910;50.932;0.246;2022-08-19T12:52:44;0.40;;;0.40;;
21497;SDS011;10910;50.932;0.246;2022-08-19T12:55:10;0.30;;;0.30;;
21497;SDS011;10910;50.932;0.246;2022-08-19T12:57:37;0.32;;;0.32;;
21497;SDS011;10910;50.932;0.246;2022-08-19T13:00:10;0.40;;;0.40;;
21497;SDS011;10910;50.932;0.246;2022-08-19T13:02:38;0.40;;;0.40;;
21497;SDS011;10910;50.932;0.246;2022-08-19T13:05:10;0.30;;;0.30;;
21497;SDS011;10910;50.932;0.246;2022-08-19T13:07:37;0.20;;;0.20;;
21497;SDS011;10910;50.932;0.246;2022-08-19T13:10:04;0.30;;;0.30;;
21497;SDS011;10910;50.932;0.246;2022-08-19T13:12:30;0.30;;;0.30;;
21497;SDS011;10910;50.932;0.246;2022-08-19T13:14:56;0.20;;;0.20;;
21497;SDS011;10910;50.932;0.246;2022-08-19T13:17:22;0.20;;;0.20;;
21497;SDS011;10910;50.932;0.246;2022-08-19T13:19:48;0.30;;;0.30;;
21497;SDS011;10910;50.932;0.246;2022-08-19T13:22:16;0.20;;;0.20;;
21497;SDS011;10910;50.932;0.246;2022-08-19T13:24:42;0.20;;;0.20;;
21497;SDS011;10910;50.932;0.246;2022-08-19T13:27:08;0.20;;;0.20;;
21497;SDS011;10910;50.932;0.246;2022-08-19T13:29:34;0.25;;;0.25;;
21497;SDS011;10910;50.932;0.246;2022-08-19T13:32:19;0.20;;;0.20;;
21497;SDS011;10910;50.932;0.246;2022-08-19T13:35:04;0.20;;;0.20;;
21497;SDS011;10910;50.932;0.246;2022-08-19T13:37:31;0.30;;;0.30;;
21497;SDS011;10910;50.932;0.246;2022-08-19T13:40:06;0.20;;;0.20;;
21497;SDS011;10910;50.932;0.246;2022-08-19T13:42:32;0.20;;;0.20;;
21497;SDS011;10910;50.932;0.246;2022-08-19T13:44:58;0.20;;;0.20;;
21497;SDS011;10910;50.932;0.246;2022-08-19T13:47:24;0.20;;;0.20;;
21497;SDS011;10910;50.932;0.246;2022-08-19T13:49:50;0.20;;;0.20;;
21497;SDS011;10910;50.932;0.246;2022-08-19T13:52:16;0.10;;;0.10;;
21497;SDS011;10910;50.932;0.246;2022-08-19T13:54:43;0.20;;;0.20;;
21497;SDS011;10910;50.932;0.246;2022-08-19T13:57:09;0.20;;;0.20;;
21497;SDS011;10910;50.932;0.246;2022-08-19T13:59:35;0.20;;;0.20;;
21497;SDS011;10910;50.932;0.246;2022-08-19T14:02:01;0.20;;;0.20;;
21497;SDS011;10910;50.932;0.246;2022-08-19T14:04:27;0.30;;;0.30;;
21497;SDS011;10910;50.932;0.246;2022-08-19T14:06:53;0.20;;;0.20;;
21497;SDS011;10910;50.932;0.246;2022-08-19T14:09:20;0.20;;;0.20;;
21497;SDS011;10910;50.932;0.246;2022-08-19T14:11:46;0.10;;;0.10;;
21497;SDS011;10910;50.932;0.246;2022-08-19T14:14:12;0.20;;;0.20;;
21497;SDS011;10910;50.932;0.246;2022-08-19T14:16:38;0.10;;;0.10;;
21497;SDS011;10910;50.932;0.246;2022-08-19T14:19:04;0.20;;;0.20;;
21497;SDS011;10910;50.932;0.246;2022-08-19T14:21:30;0.10;;;0.10;;
21497;SDS011;10910;50.932;0.246;2022-08-19T14:23:56;0.20;;;0.20;;
21497;SDS011;10910;50.932;0.246;2022-08-19T14:26:22;0.20;;;0.20;;
21497;SDS011;10910;50.932;0.246;2022-08-19T14:28:49;0.20;;;0.20;;
21497;SDS011;10910;50.932;0.246;2022-08-19T14:31:17;0.20;;;0.20;;
21497;SDS011;10910;50.932;0.246;2022-08-19T14:33:44;0.20;;;0.20;;
21497;SDS011;10910;50.932;0.246;2022-08-19T14:36:11;0.20;;;0.20;;
21497;SDS011;10910;50.932;0.246;2022-08-19T14:38:37;0.20;;;0.20;;
21497;SDS011;10910;50.932;0.246;2022-08-19T14:41:06;0.20;;;0.20;;
21497;SDS011;10910;50.932;0.246;2022-08-19T14:43:33;0.10;;;0.10;;
21497;SDS011;10910;50.932;0.246;2022-08-19T14:45:59;0.10;;;0.10;;
21497;SDS011;10910;50.932;0.246;2022-08-19T14:48:26;0.15;;;0.15;;
21497;SDS011;10910;50.932;0.246;2022-08-19T14:50:53;0.20;;;0.20;;
21497;SDS011;10910;50.932;0.246;2022-08-19T14:53:19;0.20;;;0.20;;
21497;SDS011;10910;50.932;0.246;2022-08-19T14:55:45;0.20;;;0.20;;
21497;SDS011;10910;50.932;0.246;2022-08-19T14:58:12;0.10;;;0.10;;
21497;SDS011;10910;50.932;0.246;2022-08-19T15:00:39;0.10;;;0.10;;
21497;SDS011;10910;50.932;0.246;2022-08-19T15:03:05;0.13;;;0.13;;
21497;SDS011;10910;50.932;0.246;2022-08-19T15:05:32;0.10;;;0.10;;
21497;SDS011;10910;50.932;0.246;2022-08-19T15:07:58;0.10;;;0.10;;
21497;SDS011;10910;50.932;0.246;2022-08-19T15:10:27;0.10;;;0.10;;
21497;SDS011;10910;50.932;0.246;2022-08-19T15:12:54;0.10;;;0.10;;